Time;durP1;ratioP1;P1;durP2;ratioP2;P2;SDS_P1;SDS_P2;PMS_P1;PMS_P2;Temp;Humidity;BMP_temperature;BMP_pressure;BME280_temperature;BME280_humidity;BME280_pressure;Samples;Min_cycle;Max_cycle;Signal;HPM_P1;HPM_P2
2022/11/24 00:01:09;;;;;;;13.02;2.67;;;;;;;6.27;87.80;98261.47;4932246;29;20067;-44
2022/11/24 00:03:37;;;;;;;7.65;2.47;;;;;;;6.28;87.71;98268.53;4932578;29;20177;-45
2022/11/24 00:06:06;;;;;;;8.73;2.03;;;;;;;6.28;87.85;98269.31;4932813;29;20103;-44
2022/11/24 00:08:37;;;;;;;8.93;2.85;;;;;;;6.27;87.78;98284.25;4931463;29;20094;-45
2022/11/24 00:11:10;;;;;;;8.93;2.78;;;;;;;6.28;87.75;98274.03;4932232;29;20051;-45
2022/11/24 00:13:40;;;;;;;8.05;2.53;;;;;;;6.27;87.63;98273.25;4932430;29;20375;-49
2022/11/24 00:16:10;;;;;;;12.02;1.95;;;;;;;6.25;87.69;98278.31;4932245;29;20059;-45
2022/11/24 00:18:39;;;;;;;17.38;3.25;;;;;;;6.25;87.78;98286.56;4919814;29;20066;-45
2022/11/24 00:21:06;;;;;;;12.00;2.15;;;;;;;6.24;87.61;98298.72;4932550;29;20047;-51
2022/11/24 00:23:33;;;;;;;15.90;2.35;;;;;;;6.27;87.70;98325.47;4931980;29;20050;-46
2022/11/24 00:26:05;;;;;;;10.27;1.80;;;;;;;6.30;87.56;98315.66;4932067;29;20035;-44
2022/11/24 00:28:34;;;;;;;10.40;2.17;;;;;;;6.31;87.48;98290.56;4932052;29;20123;-45
2022/11/24 00:31:02;;;;;;;13.10;2.65;;;;;;;6.32;87.28;98292.16;4932789;29;20047;-45
2022/11/24 00:33:28;;;;;;;16.58;1.98;;;;;;;6.34;87.58;98306.28;4932157;29;20052;-44
2022/11/24 00:35:59;;;;;;;15.38;2.60;;;;;;;6.37;87.59;98319.28;4930982;29;20059;-46
2022/11/24 00:38:26;;;;;;;8.38;2.97;;;;;;;6.39;87.39;98330.69;4931209;29;20110;-46
2022/11/24 00:40:53;;;;;;;13.48;4.43;;;;;;;6.39;87.33;98319.69;4931739;29;20149;-45
2022/11/24 00:43:20;;;;;;;16.10;3.40;;;;;;;6.38;87.11;98334.59;4931965;29;20449;-45
2022/11/24 00:45:47;;;;;;;9.30;2.58;;;;;;;6.37;87.17;98313.78;4915015;29;20062;-47
2022/11/24 00:48:14;;;;;;;19.27;4.65;;;;;;;6.37;87.10;98327.53;4931903;29;20043;-45
2022/11/24 00:50:41;;;;;;;10.90;2.83;;;;;;;6.40;87.04;98340.53;4931253;29;20060;-46
2022/11/24 00:53:07;;;;;;;13.80;2.47;;;;;;;6.42;86.86;98340.13;4932009;29;20048;-46
2022/11/24 00:55:34;;;;;;;13.07;2.33;;;;;;;6.41;86.88;98339.34;4931779;29;20486;-44
2022/11/24 00:58:01;;;;;;;14.23;4.95;;;;;;;6.41;86.73;98339.34;4931619;29;20386;-44
2022/11/24 01:00:28;;;;;;;12.82;2.92;;;;;;;6.41;86.66;98360.53;4931482;29;20048;-45
2022/11/24 01:02:55;;;;;;;13.27;3.25;;;;;;;6.41;86.60;98357.78;4911029;29;20147;-44
2022/11/24 01:05:21;;;;;;;9.27;2.92;;;;;;;6.40;86.51;98365.25;4912914;29;20054;-44
2022/11/24 01:07:48;;;;;;;12.00;1.95;;;;;;;6.40;86.56;98364.47;4911002;29;20426;-44
2022/11/24 01:10:15;;;;;;;15.35;2.65;;;;;;;6.38;86.22;98362.06;4911043;29;20142;-44
2022/11/24 01:12:43;;;;;;;15.88;3.28;;;;;;;6.36;86.53;98380.09;4912424;29;20526;-45
2022/11/24 01:15:10;;;;;;;13.48;2.30;;;;;;;6.35;86.36;98362.84;4899509;29;20079;-49
2022/11/24 01:17:37;;;;;;;18.85;3.10;;;;;;;6.36;86.26;98385.59;4912508;29;20114;-44
2022/11/24 01:20:04;;;;;;;13.60;2.45;;;;;;;6.38;86.32;98410.75;4912135;29;20044;-44
2022/11/24 01:22:31;;;;;;;15.55;3.95;;;;;;;6.37;86.14;98412.72;4912012;29;20418;-46
2022/11/24 01:24:58;;;;;;;13.73;2.78;;;;;;;6.38;86.20;98411.53;4912567;29;20060;-45
2022/11/24 01:27:24;;;;;;;14.77;3.10;;;;;;;6.35;86.30;98409.56;4911987;29;20044;-44
2022/11/24 01:29:51;;;;;;;19.98;3.92;;;;;;;6.34;85.97;98416.22;4912153;29;20052;-50
2022/11/24 01:32:18;;;;;;;12.30;3.20;;;;;;;6.33;86.06;98409.13;4907222;29;20040;-45
2022/11/24 01:34:44;;;;;;;20.60;3.92;;;;;;;6.33;85.89;98428.34;4908961;29;20585;-46
2022/11/24 01:37:11;;;;;;;18.17;2.85;;;;;;;6.31;85.88;98430.69;4909127;29;20044;-44
2022/11/24 01:39:38;;;;;;;14.05;2.90;;;;;;;6.30;85.78;98426.34;4923553;29;20069;-44
2022/11/24 01:42:05;;;;;;;14.25;2.30;;;;;;;6.29;85.74;98429.47;4911619;29;20060;-44
2022/11/24 01:44:32;;;;;;;18.00;3.25;;;;;;;6.26;85.78;98436.50;4918888;29;20056;-44
2022/11/24 01:47:19;;;;;;;16.42;3.45;;;;;;;6.27;85.58;98431.81;4911852;29;20092;-45
2022/11/24 01:49:50;;;;;;;12.15;2.28;;;;;;;6.24;85.64;98433.34;4897236;29;20060;-44
2022/11/24 01:52:35;;;;;;;8.15;2.85;;;;;;;6.23;85.43;98436.47;4911682;29;20048;-45
2022/11/24 01:55:07;;;;;;;13.88;2.30;;;;;;;6.21;85.32;98447.81;4911463;29;20056;-46
2022/11/24 01:57:40;;;;;;;13.13;2.30;;;;;;;6.19;85.56;98441.91;4911677;29;20071;-45
2022/11/24 02:00:11;;;;;;;10.80;2.65;;;;;;;6.15;85.29;98449.31;4911125;29;20044;-44
2022/11/24 02:02:38;;;;;;;10.50;3.80;;;;;;;6.13;85.48;98459.88;4918884;29;20059;-45
2022/11/24 02:05:11;;;;;;;12.07;2.42;;;;;;;6.10;85.39;98444.13;4927027;29;20130;-44
2022/11/24 02:07:39;;;;;;;14.50;3.08;;;;;;;6.08;85.48;98446.47;4929217;29;20044;-44
2022/11/24 02:10:12;;;;;;;9.02;1.77;;;;;;;6.06;85.61;98448.81;4930174;29;20055;-45
2022/11/24 02:12:47;;;;;;;12.45;2.72;;;;;;;6.04;85.41;98448.38;4928870;29;20051;-51
2022/11/24 02:15:14;;;;;;;17.17;3.90;;;;;;;6.02;85.62;98458.94;4930324;29;20047;-44
2022/11/24 02:17:41;;;;;;;10.93;2.40;;;;;;;6.03;85.59;98460.53;4930440;29;20040;-45
2022/11/24 02:20:10;;;;;;;14.43;2.97;;;;;;;6.04;85.39;98459.34;4930157;29;20060;-46
2022/11/24 02:23:03;;;;;;;12.60;3.45;;;;;;;6.03;85.33;98466.81;4929910;29;20050;-46
2022/11/24 02:25:38;;;;;;;21.70;2.78;;;;;;;6.02;85.22;98475.41;4930356;29;20040;-44
2022/11/24 02:28:09;;;;;;;10.95;2.05;;;;;;;5.98;85.45;98474.59;4929935;29;20048;-48
2022/11/24 02:30:36;;;;;;;15.57;3.15;;;;;;;5.95;85.48;98470.63;4929131;29;20058;-45
2022/11/24 02:33:03;;;;;;;12.45;2.30;;;;;;;5.96;85.37;98468.66;4929933;29;20406;-45
2022/11/24 02:35:30;;;;;;;11.18;2.80;;;;;;;5.96;85.24;98465.91;4930260;29;20051;-47
2022/11/24 02:37:57;;;;;;;9.90;2.30;;;;;;;5.94;85.38;98460.00;4906475;29;20054;-47
2022/11/24 02:40:27;;;;;;;16.40;2.83;;;;;;;5.92;85.42;98470.56;4929936;29;20052;-44
2022/11/24 02:43:01;;;;;;;12.00;2.17;;;;;;;5.92;85.12;98467.81;4917084;29;20054;-54
2022/11/24 02:45:30;;;;;;;14.85;2.90;;;;;;;5.94;85.12;98479.22;4930428;29;20058;-45
2022/11/24 02:47:57;;;;;;;14.02;2.35;;;;;;;5.97;85.10;98483.97;4928302;29;20058;-45
2022/11/24 02:50:23;;;;;;;9.27;2.17;;;;;;;5.96;85.14;98468.66;4930055;29;20051;-44
2022/11/24 02:52:50;;;;;;;10.77;1.95;;;;;;;5.99;84.90;98478.91;4912787;29;20134;-48
2022/11/24 02:55:17;;;;;;;15.05;4.22;;;;;;;5.98;84.98;98480.84;4912917;29;20059;-46
2022/11/24 02:57:44;;;;;;;15.35;2.78;;;;;;;6.00;84.85;98477.75;4929937;29;20525;-44
2022/11/24 03:00:11;;;;;;;9.20;2.55;;;;;;;5.99;84.80;98470.66;4928693;29;20061;-44
2022/11/24 03:02:39;;;;;;;10.10;2.50;;;;;;;5.98;84.94;98467.13;4997146;23;20059;-45
2022/11/24 03:05:06;;;;;;;12.88;2.80;;;;;;;5.99;84.73;98468.72;4967496;28;20047;-45
2022/11/24 03:07:33;;;;;;;11.27;2.58;;;;;;;6.01;84.88;98462.88;4967643;28;20061;-45
2022/11/24 03:10:00;;;;;;;9.05;2.95;;;;;;;6.03;84.67;98460.53;4968272;28;20049;-44
2022/11/24 03:12:27;;;;;;;17.65;2.17;;;;;;;6.03;84.53;98461.31;4964625;28;20050;-45
2022/11/24 03:14:54;;;;;;;9.60;3.17;;;;;;;6.04;84.51;98462.09;4966711;28;20057;-45
2022/11/24 03:17:20;;;;;;;12.70;2.65;;;;;;;6.04;84.53;98467.59;4968712;28;20043;-45
2022/11/24 03:19:47;;;;;;;10.63;2.00;;;;;;;6.04;84.51;98462.09;4967539;28;20101;-44
2022/11/24 03:22:14;;;;;;;14.65;4.25;;;;;;;6.05;84.44;98458.19;4967387;28;20055;-45
2022/11/24 03:24:41;;;;;;;16.95;2.97;;;;;;;6.05;84.67;98469.97;4967405;28;20053;-44
2022/11/24 03:27:07;;;;;;;23.52;7.25;;;;;;;6.07;84.49;98472.34;4966120;28;20046;-44
2022/11/24 03:29:34;;;;;;;16.80;3.30;;;;;;;6.12;84.55;98480.25;4967137;28;20094;-45
2022/11/24 03:32:01;;;;;;;9.77;2.25;;;;;;;6.15;84.59;98479.53;4967625;28;20055;-45
2022/11/24 03:34:28;;;;;;;9.88;2.83;;;;;;;6.20;84.55;98483.91;4964776;28;20138;-45
2022/11/24 03:36:57;;;;;;;21.48;3.55;;;;;;;6.25;84.47;98475.38;4967718;28;20054;-45
2022/11/24 03:39:23;;;;;;;11.85;2.97;;;;;;;6.28;84.41;98489.13;4966192;28;20050;-45
2022/11/24 03:41:50;;;;;;;11.43;2.38;;;;;;;6.27;84.46;98475.78;4966629;28;20068;-44
2022/11/24 03:44:17;;;;;;;12.02;2.72;;;;;;;6.28;84.52;98483.63;4967985;28;20042;-46
2022/11/24 03:46:44;;;;;;;14.55;3.85;;;;;;;6.27;84.52;98482.06;4949256;28;20091;-45
2022/11/24 03:49:11;;;;;;;30.13;4.53;;;;;;;6.27;84.52;98482.06;4966570;28;20047;-45
2022/11/24 03:51:39;;;;;;;12.10;3.83;;;;;;;6.28;84.72;98494.63;4965834;28;20047;-45
2022/11/24 03:54:06;;;;;;;23.23;3.88;;;;;;;6.27;84.83;98501.31;4967314;28;20061;-45
2022/11/24 03:56:33;;;;;;;16.35;3.30;;;;;;;6.28;84.69;98489.13;4966322;28;20106;-45
2022/11/24 03:59:00;;;;;;;18.88;3.28;;;;;;;6.27;84.91;98498.56;4967843;28;20421;-48
2022/11/24 04:01:27;;;;;;;21.77;2.50;;;;;;;6.26;85.18;98496.97;4965705;28;20053;-49
2022/11/24 04:03:55;;;;;;;18.33;3.53;;;;;;;6.25;85.31;98495.38;4966925;28;20512;-45
2022/11/24 04:06:22;;;;;;;15.13;3.72;;;;;;;6.27;85.00;98517.78;4965563;28;20386;-44
2022/11/24 04:08:49;;;;;;;15.13;3.65;;;;;;;6.29;85.47;98520.16;4966481;28;20089;-45
2022/11/24 04:14:02;;;;;;;24.35;4.32;;;;;;;6.34;85.68;98495.91;4970352;28;20054;-50
2022/11/24 04:16:29;;;;;;;27.40;4.45;;;;;;;6.39;85.82;98501.06;4969587;28;20050;-45
2022/11/24 04:18:59;;;;;;;22.63;3.55;;;;;;;6.44;85.83;98495.25;4970062;28;20046;-45
2022/11/24 04:21:26;;;;;;;15.63;3.88;;;;;;;6.49;85.80;98488.63;4967092;28;20050;-45
2022/11/24 04:23:52;;;;;;;12.32;2.75;;;;;;;6.53;85.83;98487.53;4970590;28;20485;-50
2022/11/24 04:26:19;;;;;;;20.63;3.90;;;;;;;6.54;85.90;98491.06;4970432;28;20050;-45
2022/11/24 04:28:46;;;;;;;23.65;4.10;;;;;;;6.54;85.88;98489.09;4970305;28;20054;-48
2022/11/24 04:31:13;;;;;;;16.33;2.80;;;;;;;6.57;85.94;98484.81;4968290;28;20151;-45
2022/11/24 04:33:40;;;;;;;20.10;4.18;;;;;;;6.58;86.09;98484.44;4970130;28;20078;-45
2022/11/24 04:36:07;;;;;;;19.30;4.38;;;;;;;6.62;86.01;98498.22;4969012;28;20054;-45
2022/11/24 04:38:33;;;;;;;21.60;4.05;;;;;;;6.64;86.33;98477.47;4969876;28;20258;-45
2022/11/24 04:41:20;;;;;;;21.05;3.30;;;;;;;6.64;86.19;98491.22;4966319;28;20489;-45
2022/11/24 04:43:50;;;;;;;21.23;3.83;;;;;;;6.63;86.01;98478.63;4970247;28;20042;-45
2022/11/24 04:46:17;;;;;;;18.58;3.45;;;;;;;6.63;86.22;98481.38;4968695;28;20043;-52
2022/11/24 04:48:44;;;;;;;18.83;5.30;;;;;;;6.63;86.32;98467.63;4970499;28;20055;-45
2022/11/24 04:51:13;;;;;;;14.02;5.60;;;;;;;6.68;86.27;98458.25;4966398;28;20069;-45
2022/11/24 04:53:40;;;;;;;27.20;5.82;;;;;;;6.78;86.31;98456.78;4970002;28;20481;-45
2022/11/24 04:56:07;;;;;;;17.08;3.63;;;;;;;6.85;86.10;98451.38;4969548;28;20046;-45
2022/11/24 04:58:34;;;;;;;17.38;3.55;;;;;;;6.90;86.24;98453.78;4969791;28;20049;-45
2022/11/24 05:01:00;;;;;;;26.00;4.63;;;;;;;6.93;86.03;98458.53;4965998;28;20062;-45
2022/11/24 05:03:28;;;;;;;24.13;3.60;;;;;;;6.96;85.96;98452.28;4968639;28;20047;-45
2022/11/24 05:05:57;;;;;;;31.27;4.75;;;;;;;6.97;86.10;98449.13;4969363;28;20046;-44
2022/11/24 05:08:24;;;;;;;18.65;3.90;;;;;;;6.99;86.02;98429.53;4969106;28;20587;-45
2022/11/24 05:10:51;;;;;;;21.80;4.70;;;;;;;7.08;86.07;98428.03;4969725;28;20105;-49
2022/11/24 05:13:17;;;;;;;25.25;5.00;;;;;;;7.16;85.89;98412.38;4969062;28;20050;-46
2022/11/24 05:15:44;;;;;;;25.08;4.70;;;;;;;7.16;85.81;98415.13;4952299;28;20420;-45
2022/11/24 05:18:14;;;;;;;28.63;3.60;;;;;;;7.17;85.90;98409.28;4952369;28;20097;-45
2022/11/24 05:20:43;;;;;;;19.30;4.32;;;;;;;7.17;85.93;98394.72;4969591;28;20060;-45
2022/11/24 05:23:12;;;;;;;19.60;4.25;;;;;;;7.16;86.14;98398.63;4969579;28;20445;-45
2022/11/24 05:25:41;;;;;;;21.33;4.60;;;;;;;7.20;86.03;98404.97;4953169;28;20070;-45
2022/11/24 05:28:13;;;;;;;26.55;5.10;;;;;;;7.19;86.11;98406.94;4968320;28;20050;-46
2022/11/24 05:30:40;;;;;;;23.58;4.28;;;;;;;7.22;86.36;98400.66;4963384;28;20484;-45
2022/11/24 05:33:15;;;;;;;19.67;3.72;;;;;;;7.22;86.21;98408.13;4969222;28;20138;-44
2022/11/24 05:35:47;;;;;;;24.02;3.83;;;;;;;7.19;86.26;98401.41;4968398;28;20567;-48
2022/11/24 05:38:15;;;;;;;22.83;3.87;;;;;;;7.17;86.45;98398.25;4968036;28;20128;-45
2022/11/24 05:40:43;;;;;;;26.75;4.82;;;;;;;7.15;86.33;98395.06;4966670;28;20051;-45
2022/11/24 05:43:13;;;;;;;24.48;3.85;;;;;;;7.12;86.48;98389.56;4969507;28;20086;-45
2022/11/24 05:45:43;;;;;;;20.75;3.38;;;;;;;7.08;86.52;98386.78;4967042;28;20042;-45
2022/11/24 05:48:13;;;;;;;23.70;3.78;;;;;;;7.06;86.60;98371.81;4968242;28;20547;-45
2022/11/24 05:50:41;;;;;;;26.27;4.72;;;;;;;7.01;86.45;98364.72;4967110;28;20077;-45
2022/11/24 05:53:10;;;;;;;25.13;4.55;;;;;;;6.96;86.81;98365.06;4968254;28;20047;-45
2022/11/24 05:55:38;;;;;;;22.98;4.07;;;;;;;6.97;87.08;98343.81;4966464;28;20051;-45
2022/11/24 05:58:07;;;;;;;24.92;3.78;;;;;;;6.97;87.15;98343.81;4968767;28;20050;-45
2022/11/24 06:00:35;;;;;;;32.22;4.88;;;;;;;6.99;87.38;98358.00;4965253;28;20071;-45
2022/11/24 06:03:02;;;;;;;27.02;4.70;;;;;;;7.00;87.50;98354.84;4967191;28;20062;-45
2022/11/24 06:05:29;;;;;;;23.30;5.22;;;;;;;7.04;87.93;98363.16;4967243;28;20125;-45
2022/11/24 06:07:58;;;;;;;32.15;6.82;;;;;;;7.06;87.60;98358.84;4968885;28;20046;-45
2022/11/24 06:10:25;;;;;;;25.73;5.40;;;;;;;7.07;87.75;98359.66;4966904;28;20050;-48
2022/11/24 06:12:53;;;;;;;40.22;7.15;;;;;;;7.08;87.93;98355.72;4967818;28;20508;-45
2022/11/24 06:15:20;;;;;;;21.27;5.43;;;;;;;7.08;88.04;98337.25;4966393;28;20130;-45
2022/11/24 06:17:54;;;;;;;29.30;5.60;;;;;;;7.12;88.26;98329.81;4962642;28;20047;-45
2022/11/24 06:20:22;;;;;;;28.30;6.03;;;;;;;7.17;88.52;98321.22;4967366;28;20034;-48
2022/11/24 06:22:57;;;;;;;22.70;5.22;;;;;;;7.23;88.72;98327.13;4963034;28;20050;-46
2022/11/24 06:25:25;;;;;;;32.15;4.97;;;;;;;7.27;88.64;98327.97;4965638;28;20117;-47
2022/11/24 06:27:53;;;;;;;27.95;6.40;;;;;;;7.28;88.71;98327.56;4967183;28;20109;-45
2022/11/24 06:30:19;;;;;;;28.77;4.82;;;;;;;7.31;88.93;98323.25;4967162;28;20058;-45
2022/11/24 06:32:47;;;;;;;22.80;5.28;;;;;;;7.35;89.19;98315.84;4967839;28;20149;-45
2022/11/24 06:35:16;;;;;;;20.85;4.25;;;;;;;7.38;89.22;98306.81;4967215;28;20054;-45
2022/11/24 06:37:44;;;;;;;27.33;4.93;;;;;;;7.40;89.51;98315.47;4967044;28;20062;-45
2022/11/24 06:40:11;;;;;;;22.42;5.30;;;;;;;7.42;89.46;98318.63;4950401;28;20046;-45
2022/11/24 06:42:38;;;;;;;29.85;5.95;;;;;;;7.44;89.78;98321.78;4968229;28;20480;-45
2022/11/24 06:45:05;;;;;;;32.00;4.32;;;;;;;7.48;90.06;98322.59;4968113;28;20082;-48
2022/11/24 06:47:35;;;;;;;27.77;4.97;;;;;;;7.53;90.36;98319.50;4966318;28;20053;-45
2022/11/24 06:50:02;;;;;;;33.70;5.20;;;;;;;7.59;90.49;98320.72;4968124;28;20438;-46
2022/11/24 06:52:29;;;;;;;23.50;5.03;;;;;;;7.64;90.70;98306.59;4967959;28;20142;-45
2022/11/24 06:54:56;;;;;;;20.92;5.25;;;;;;;7.70;90.72;98298.75;4966919;28;20556;-46
2022/11/24 06:57:24;;;;;;;35.75;7.13;;;;;;;7.75;90.93;98285.41;4966249;28;20062;-51
2022/11/24 06:59:50;;;;;;;29.13;6.68;;;;;;;7.80;91.07;98271.25;4949394;28;20050;-45
2022/11/24 07:02:17;;;;;;;22.65;4.20;;;;;;;7.83;91.33;98261.44;4966447;28;20112;-45
2022/11/24 07:04:44;;;;;;;20.88;4.65;;;;;;;7.84;91.34;98244.50;4967014;28;20035;-47
2022/11/24 07:07:11;;;;;;;30.27;6.13;;;;;;;7.88;91.61;98244.53;4967048;28;20160;-45
2022/11/24 07:09:38;;;;;;;26.58;4.90;;;;;;;7.91;91.74;98238.25;4950434;28;20055;-47
2022/11/24 07:12:05;;;;;;;30.88;4.82;;;;;;;7.93;91.78;98235.88;4961647;28;20057;-53
2022/11/24 07:14:32;;;;;;;27.13;5.53;;;;;;;7.98;92.03;98233.53;4963179;28;20521;-45
2022/11/24 07:17:01;;;;;;;24.00;6.05;;;;;;;7.99;92.03;98226.06;4965457;28;20050;-45
2022/11/24 07:19:28;;;;;;;29.88;5.82;;;;;;;8.05;92.26;98224.50;4966203;28;21569;-45
2022/11/24 07:21:55;;;;;;;23.63;3.88;;;;;;;8.11;92.27;98220.19;4967044;28;20146;-45
2022/11/24 07:24:21;;;;;;;24.90;4.68;;;;;;;8.16;92.34;98221.78;4967803;28;20070;-45
2022/11/24 07:26:48;;;;;;;24.85;5.40;;;;;;;8.20;92.61;98201.31;4948696;28;20042;-46
2022/11/24 07:29:15;;;;;;;30.08;7.85;;;;;;;8.22;92.73;98198.16;4967094;28;20051;-49
2022/11/24 07:31:42;;;;;;;42.58;6.82;;;;;;;8.24;92.82;98199.34;4966426;28;20492;-45
2022/11/24 07:34:09;;;;;;;20.60;3.95;;;;;;;8.25;93.07;98186.38;4964614;28;20047;-45
2022/11/24 07:36:35;;;;;;;32.60;4.53;;;;;;;8.23;93.31;98170.22;4962035;28;20508;-49
2022/11/24 07:39:05;;;;;;;35.15;6.28;;;;;;;8.25;93.58;98164.31;4966670;28;20046;-46
2022/11/24 07:41:32;;;;;;;21.17;5.60;;;;;;;8.26;93.71;98160.38;4966043;28;20057;-46
2022/11/24 07:43:59;;;;;;;21.83;5.30;;;;;;;8.26;93.87;98152.13;4964150;28;20713;-45
2022/11/24 07:46:25;;;;;;;38.45;7.60;;;;;;;8.28;94.25;98147.03;4965443;28;20133;-45
2022/11/24 07:48:52;;;;;;;28.92;5.15;;;;;;;8.31;94.39;98135.22;4968317;28;20102;-45
2022/11/24 07:51:19;;;;;;;40.47;6.63;;;;;;;8.33;94.53;98127.34;4969654;28;20043;-48
2022/11/24 07:53:46;;;;;;;30.70;7.00;;;;;;;8.35;94.92;98125.75;4969849;28;20089;-47
2022/11/24 07:56:13;;;;;;;25.10;6.57;;;;;;;8.41;95.29;98121.44;4969755;28;20042;-48
2022/11/24 07:58:40;;;;;;;27.00;4.90;;;;;;;8.44;95.51;98119.84;4971555;28;20054;-46
2022/11/24 08:01:15;;;;;;;18.27;4.65;;;;;;;8.45;95.61;98107.63;4970042;28;20066;-46
2022/11/24 08:03:44;;;;;;;26.25;4.65;;;;;;;8.46;95.54;98093.47;4961489;28;20070;-45
2022/11/24 08:06:11;;;;;;;26.98;4.80;;;;;;;8.49;95.70;98091.88;4971003;28;20121;-45
2022/11/24 08:08:50;;;;;;;25.58;4.75;;;;;;;8.49;95.92;98086.38;4971152;28;20046;-45
2022/11/24 08:11:17;;;;;;;21.33;3.85;;;;;;;8.49;96.27;98081.66;4953617;28;20042;-45
2022/11/24 08:13:44;;;;;;;22.27;4.15;;;;;;;8.52;96.38;98069.81;4970322;28;20624;-48
2022/11/24 08:16:15;;;;;;;21.38;3.20;;;;;;;8.55;96.44;98066.25;4983396;28;20108;-46
2022/11/24 08:18:47;;;;;;;18.55;4.20;;;;;;;8.57;96.52;98060.34;4968068;28;20039;-44
2022/11/24 08:21:14;;;;;;;22.27;4.82;;;;;;;8.58;96.75;98045.38;4968331;28;20039;-51
2022/11/24 08:23:41;;;;;;;17.38;3.03;;;;;;;8.61;96.92;98041.81;4962340;28;20050;-49
2022/11/24 08:26:14;;;;;;;16.33;2.88;;;;;;;8.67;97.03;98048.50;4969779;28;20067;-43
2022/11/24 08:28:41;;;;;;;13.82;4.13;;;;;;;8.71;96.81;98029.97;4969197;28;20878;-44
2022/11/24 08:31:15;;;;;;;21.15;5.63;;;;;;;8.73;97.04;98024.88;4947789;28;20061;-45
2022/11/24 08:33:42;;;;;;;23.95;4.22;;;;;;;8.75;97.17;98022.50;4969274;28;20130;-45
2022/11/24 08:36:11;;;;;;;20.38;4.05;;;;;;;8.77;97.15;98019.31;4969296;28;20042;-45
2022/11/24 08:38:39;;;;;;;19.65;4.70;;;;;;;8.78;97.37;98009.88;4969602;28;20043;-44
2022/11/24 08:41:11;;;;;;;26.45;4.63;;;;;;;8.80;97.56;97991.72;4967666;28;20408;-44
2022/11/24 08:43:38;;;;;;;9.15;2.08;;;;;;;8.83;97.52;97988.19;4970331;28;20046;-44
2022/11/24 08:46:08;;;;;;;16.38;2.75;;;;;;;8.87;97.68;97996.44;4968235;28;20039;-45
2022/11/24 08:48:35;;;;;;;15.35;2.42;;;;;;;8.92;97.85;97999.53;4961431;28;20567;-44
2022/11/24 08:51:11;;;;;;;13.15;2.08;;;;;;;8.96;97.75;97985.75;4968463;28;20141;-45
2022/11/24 08:53:40;;;;;;;12.48;2.33;;;;;;;8.93;97.94;97989.31;4966011;28;20500;-45
2022/11/24 08:56:09;;;;;;;8.23;2.28;;;;;;;8.89;97.71;98000.38;4967659;28;20510;-45
2022/11/24 08:58:38;;;;;;;11.68;2.90;;;;;;;8.83;97.63;98015.75;4967610;28;20572;-44
2022/11/24 09:01:15;;;;;;;11.27;1.85;;;;;;;8.76;97.66;98017.75;4968082;28;20469;-44
2022/11/24 18:38:28;;;;;;;16.08;5.75;;;;;;;7.16;82.44;98127.03;4912459;28;20066;-49
2022/11/24 18:41:16;;;;;;;10.57;3.83;;;;;;;7.22;82.48;98127.44;4921467;29;20048;-44
2022/11/24 18:44:06;;;;;;;7.53;2.65;;;;;;;7.25;82.83;98135.69;4918969;29;20056;-45
2022/11/24 18:46:54;;;;;;;7.57;2.92;;;;;;;7.28;82.63;98126.66;4919329;29;20052;-48
2022/11/24 18:49:40;;;;;;;9.23;3.13;;;;;;;7.30;82.80;98134.56;4924649;29;20059;-50
2022/11/24 18:52:27;;;;;;;9.45;2.50;;;;;;;7.31;83.02;98133.38;4921214;29;20358;-45
2022/11/24 18:55:14;;;;;;;6.82;2.13;;;;;;;7.31;83.08;98116.84;4926797;29;20406;-45
2022/11/24 18:58:01;;;;;;;9.45;3.67;;;;;;;7.32;83.20;98119.22;4927516;29;20056;-46
2022/11/24 19:00:48;;;;;;;8.57;3.78;;;;;;;7.34;83.16;98118.84;4924534;29;20051;-44
2022/11/24 19:03:41;;;;;;;7.75;3.20;;;;;;;7.34;83.36;98116.09;4924513;29;20076;-46
2022/11/24 19:06:37;;;;;;;10.18;3.92;;;;;;;7.30;83.42;98107.84;4927100;29;20075;-44
2022/11/24 19:09:24;;;;;;;11.43;5.55;;;;;;;7.32;83.59;98112.94;4919682;29;20499;-45
2022/11/24 19:12:11;;;;;;;13.38;6.07;;;;;;;7.31;83.59;98108.59;4925983;29;20060;-44
2022/11/24 19:14:58;;;;;;;13.35;5.40;;;;;;;7.32;83.79;98110.19;4921268;29;20074;-45
2022/11/24 19:17:45;;;;;;;12.45;4.35;;;;;;;7.32;83.92;98107.44;4919750;29;20047;-44
2022/11/24 19:20:34;;;;;;;9.63;3.38;;;;;;;7.31;83.83;98105.84;4908652;29;20131;-45
2022/11/24 19:23:21;;;;;;;8.52;2.97;;;;;;;7.28;84.09;98103.91;4924063;29;20051;-49
2022/11/24 19:26:08;;;;;;;9.23;4.65;;;;;;;7.28;84.21;98103.91;4924364;29;20056;-45
2022/11/24 19:28:55;;;;;;;10.73;4.07;;;;;;;7.27;84.34;98110.56;4927860;29;20532;-45
2022/11/24 19:31:42;;;;;;;6.82;3.42;;;;;;;7.26;84.44;98109.75;4919990;29;20446;-45
2022/11/24 19:34:29;;;;;;;9.95;4.00;;;;;;;7.25;84.60;98112.91;4925984;29;20142;-46
2022/11/24 19:37:16;;;;;;;6.78;2.65;;;;;;;7.20;84.70;98116.03;4921205;29;20067;-49
2022/11/24 19:40:04;;;;;;;7.55;2.70;;;;;;;7.16;84.75;98120.72;4922878;29;20049;-49
2022/11/24 19:42:51;;;;;;;8.35;3.05;;;;;;;7.14;84.79;98123.88;4923919;29;20134;-47
2022/11/24 19:45:43;;;;;;;13.15;4.28;;;;;;;7.11;84.91;98124.66;4927379;29;20060;-47
2022/11/24 19:48:32;;;;;;;5.63;2.05;;;;;;;7.08;85.09;98141.91;4925854;29;20094;-46
2022/11/24 19:51:22;;;;;;;7.43;3.35;;;;;;;7.05;84.98;98139.94;4925774;29;20530;-47
2022/11/24 19:54:12;;;;;;;8.60;2.90;;;;;;;7.02;85.04;98145.41;4922187;29;20055;-45
2022/11/24 19:56:59;;;;;;;10.95;5.90;;;;;;;6.99;85.18;98160.72;4928622;29;20056;-45
2022/11/24 19:59:46;;;;;;;9.68;4.35;;;;;;;6.95;85.22;98175.63;4924344;29;20084;-45
2022/11/24 20:02:33;;;;;;;11.30;4.07;;;;;;;6.91;85.47;98183.09;4920821;29;20055;-46
2022/11/24 20:05:22;;;;;;;12.23;3.67;;;;;;;6.88;85.65;98192.09;4923236;29;20469;-44
2022/11/24 20:08:10;;;;;;;14.85;3.38;;;;;;;6.91;85.71;98197.59;4925454;29;20118;-46
2022/11/24 20:11:11;;;;;;;12.15;3.83;;;;;;;6.96;85.90;98200.03;4921777;29;20092;-55
2022/11/24 20:13:59;;;;;;;11.07;2.88;;;;;;;7.01;85.98;98213.41;4926980;29;20056;-53
2022/11/24 20:16:46;;;;;;;14.80;3.00;;;;;;;7.05;86.02;98214.22;4924613;29;20067;-47
2022/11/24 20:19:33;;;;;;;11.45;2.65;;;;;;;7.04;85.95;98209.09;4915805;29;20040;-45
2022/11/24 20:22:20;;;;;;;10.25;2.33;;;;;;;7.02;86.09;98225.19;4925546;29;20501;-45
2022/11/24 20:25:10;;;;;;;11.50;2.70;;;;;;;6.98;86.19;98247.19;4926312;29;20059;-48
2022/11/24 20:27:57;;;;;;;11.27;2.45;;;;;;;6.97;86.29;98258.53;4926556;29;20086;-45
2022/11/24 20:30:44;;;;;;;10.23;2.70;;;;;;;6.95;86.63;98258.16;4925126;29;20052;-50
2022/11/24 20:33:31;;;;;;;19.42;4.18;;;;;;;6.95;86.83;98277.41;4932559;29;20373;-45
2022/11/24 20:36:21;;;;;;;13.52;3.78;;;;;;;6.95;86.70;98291.16;4925870;29;20502;-45
2022/11/24 20:39:15;;;;;;;16.08;3.80;;;;;;;6.94;87.08;98295.84;4922862;29;20056;-45
2022/11/24 20:42:02;;;;;;;11.57;3.72;;;;;;;6.96;87.24;98301.00;4924024;29;20096;-49
2022/11/24 20:44:49;;;;;;;15.57;4.18;;;;;;;6.97;87.07;98311.59;4923496;29;20391;-45
2022/11/24 20:47:36;;;;;;;9.68;2.80;;;;;;;7.00;87.44;98310.06;4922674;29;20063;-46
2022/11/24 20:50:23;;;;;;;7.45;2.85;;;;;;;7.04;87.43;98324.63;4922709;29;20051;-45
2022/11/24 20:53:10;;;;;;;7.82;3.42;;;;;;;7.06;87.59;98333.28;4926075;29;20247;-51
2022/11/24 20:56:18;;;;;;;9.02;3.20;;;;;;;7.11;87.67;98354.94;4924307;29;20525;-46
2022/11/24 20:59:06;;;;;;;20.02;4.40;;;;;;;7.12;87.65;98348.28;4920824;29;20243;-45
2022/11/24 21:01:55;;;;;;;14.05;3.47;;;;;;;7.12;87.69;98373.81;4907077;29;20531;-47
2022/11/24 21:04:42;;;;;;;18.63;6.20;;;;;;;7.06;88.10;98371.81;4924144;29;20051;-51
2022/11/24 21:07:28;;;;;;;13.43;3.80;;;;;;;7.00;87.83;98392.56;4924860;29;20047;-46
2022/11/24 21:10:16;;;;;;;11.70;3.88;;;;;;;6.95;88.05;98401.97;4931108;29;20655;-45
2022/11/24 21:13:03;;;;;;;16.38;3.15;;;;;;;6.90;88.17;98418.81;4923980;29;20055;-46
2022/11/24 21:15:50;;;;;;;7.13;2.90;;;;;;;6.86;88.24;98422.72;4913754;29;20048;-46
2022/11/24 21:18:37;;;;;;;12.63;4.22;;;;;;;6.82;88.53;98433.66;4930077;29;20490;-46
2022/11/24 21:21:32;;;;;;;10.52;5.28;;;;;;;6.80;88.59;98449.75;4929284;29;20418;-52
2022/11/24 21:24:21;;;;;;;13.60;5.72;;;;;;;6.80;88.84;98455.25;4930506;29;20060;-49
2022/11/24 21:27:09;;;;;;;17.48;5.05;;;;;;;6.79;88.86;98470.16;4917536;29;20059;-47
2022/11/24 21:29:56;;;;;;;15.43;3.88;;;;;;;6.76;89.00;98481.91;4921668;29;20055;-47
2022/11/24 21:32:43;;;;;;;16.20;4.13;;;;;;;6.74;88.89;98495.25;4930211;29;20051;-53
2022/11/24 21:35:35;;;;;;;12.15;3.70;;;;;;;6.69;89.10;98499.13;4931738;29;20048;-49
2022/11/24 21:38:22;;;;;;;14.33;4.27;;;;;;;6.65;89.17;98514.75;4931553;29;20048;-47